sensor_id;sensor_type;location;lat;lon;timestamp;P1;durP1;ratioP1;P2;durP2;ratioP2
51724;SDS011;37801;53.224;6.552;2023-05-29T00:01:23;10.45;;;2.38;;
51724;SDS011;37801;53.224;6.552;2023-05-29T00:03:49;13.63;;;2.45;;
51724;SDS011;37801;53.224;6.552;2023-05-29T00:06:15;11.48;;;2.42;;
51724;SDS011;37801;53.224;6.552;2023-05-29T00:08:42;9.25;;;2.70;;
51724;SDS011;37801;53.224;6.552;2023-05-29T00:11:08;9.80;;;2.40;;
51724;SDS011;37801;53.224;6.552;2023-05-29T00:13:34;9.23;;;1.77;;
51724;SDS011;37801;53.224;6.552;2023-05-29T00:16:00;13.10;;;2.33;;
51724;SDS011;37801;53.224;6.552;2023-05-29T00:18:28;13.60;;;2.47;;
51724;SDS011;37801;53.224;6.552;2023-05-29T00:20:55;12.35;;;2.17;;
51724;SDS011;37801;53.224;6.552;2023-05-29T00:23:21;10.07;;;2.10;;
51724;SDS011;37801;53.224;6.552;2023-05-29T00:25:47;10.48;;;2.15;;
51724;SDS011;37801;53.224;6.552;2023-05-29T00:28:13;13.35;;;2.35;;
51724;SDS011;37801;53.224;6.552;2023-05-29T00:30:40;10.75;;;1.98;;
51724;SDS011;37801;53.224;6.552;2023-05-29T00:33:06;10.93;;;1.65;;
51724;SDS011;37801;53.224;6.552;2023-05-29T00:35:33;12.43;;;3.00;;
51724;SDS011;37801;53.224;6.552;2023-05-29T00:37:59;9.05;;;2.08;;
51724;SDS011;37801;53.224;6.552;2023-05-29T00:40:25;13.80;;;2.25;;
51724;SDS011;37801;53.224;6.552;2023-05-29T00:42:51;11.02;;;2.35;;
51724;SDS011;37801;53.224;6.552;2023-05-29T00:45:18;8.80;;;1.83;;
51724;SDS011;37801;53.224;6.552;2023-05-29T00:47:44;10.68;;;2.15;;
51724;SDS011;37801;53.224;6.552;2023-05-29T00:50:11;7.47;;;1.88;;
51724;SDS011;37801;53.224;6.552;2023-05-29T00:52:41;13.98;;;2.67;;
51724;SDS011;37801;53.224;6.552;2023-05-29T00:55:09;12.82;;;2.30;;
51724;SDS011;37801;53.224;6.552;2023-05-29T00:57:35;8.93;;;2.10;;
51724;SDS011;37801;53.224;6.552;2023-05-29T01:00:02;13.50;;;2.40;;
51724;SDS011;37801;53.224;6.552;2023-05-29T01:02:31;11.85;;;2.50;;
51724;SDS011;37801;53.224;6.552;2023-05-29T01:04:57;8.77;;;2.40;;
51724;SDS011;37801;53.224;6.552;2023-05-29T01:07:23;11.65;;;2.92;;
51724;SDS011;37801;53.224;6.552;2023-05-29T01:09:50;15.65;;;2.67;;
51724;SDS011;37801;53.224;6.552;2023-05-29T01:25:24;13.00;;;2.45;;
51724;SDS011;37801;53.224;6.552;2023-05-29T01:27:55;11.30;;;2.95;;
51724;SDS011;37801;53.224;6.552;2023-05-29T01:30:25;15.48;;;3.25;;
51724;SDS011;37801;53.224;6.552;2023-05-29T01:32:54;10.18;;;2.45;;
51724;SDS011;37801;53.224;6.552;2023-05-29T01:35:20;9.18;;;2.55;;
51724;SDS011;37801;53.224;6.552;2023-05-29T01:37:46;9.57;;;2.17;;
51724;SDS011;37801;53.224;6.552;2023-05-29T01:40:12;10.57;;;2.33;;
51724;SDS011;37801;53.224;6.552;2023-05-29T01:42:39;9.98;;;2.47;;
51724;SDS011;37801;53.224;6.552;2023-05-29T01:45:05;8.93;;;2.67;;
51724;SDS011;37801;53.224;6.552;2023-05-29T01:47:32;8.35;;;2.15;;
51724;SDS011;37801;53.224;6.552;2023-05-29T01:49:58;13.65;;;3.03;;
51724;SDS011;37801;53.224;6.552;2023-05-29T01:52:25;10.40;;;2.47;;
51724;SDS011;37801;53.224;6.552;2023-05-29T01:54:51;10.88;;;2.35;;
51724;SDS011;37801;53.224;6.552;2023-05-29T01:57:17;8.95;;;2.15;;
51724;SDS011;37801;53.224;6.552;2023-05-29T01:59:45;10.77;;;2.55;;
51724;SDS011;37801;53.224;6.552;2023-05-29T02:02:12;12.18;;;2.20;;
51724;SDS011;37801;53.224;6.552;2023-05-29T02:04:38;16.05;;;2.95;;
51724;SDS011;37801;53.224;6.552;2023-05-29T02:07:04;9.35;;;2.38;;
51724;SDS011;37801;53.224;6.552;2023-05-29T02:09:31;17.00;;;2.80;;
51724;SDS011;37801;53.224;6.552;2023-05-29T02:11:58;12.07;;;2.22;;
51724;SDS011;37801;53.224;6.552;2023-05-29T02:14:24;11.95;;;2.83;;
51724;SDS011;37801;53.224;6.552;2023-05-29T02:16:50;8.98;;;2.80;;
51724;SDS011;37801;53.224;6.552;2023-05-29T02:19:17;10.93;;;2.63;;
51724;SDS011;37801;53.224;6.552;2023-05-29T02:21:43;11.07;;;2.60;;
51724;SDS011;37801;53.224;6.552;2023-05-29T02:24:09;16.60;;;2.85;;
51724;SDS011;37801;53.224;6.552;2023-05-29T02:26:35;10.60;;;2.40;;
51724;SDS011;37801;53.224;6.552;2023-05-29T02:29:02;8.95;;;2.38;;
51724;SDS011;37801;53.224;6.552;2023-05-29T02:31:31;11.52;;;2.60;;
51724;SDS011;37801;53.224;6.552;2023-05-29T02:33:57;13.32;;;2.28;;
51724;SDS011;37801;53.224;6.552;2023-05-29T02:36:24;12.18;;;2.97;;
51724;SDS011;37801;53.224;6.552;2023-05-29T02:38:50;8.15;;;2.30;;
51724;SDS011;37801;53.224;6.552;2023-05-29T02:41:16;9.48;;;2.17;;
51724;SDS011;37801;53.224;6.552;2023-05-29T02:43:42;10.32;;;2.33;;
51724;SDS011;37801;53.224;6.552;2023-05-29T02:46:09;8.15;;;2.20;;
51724;SDS011;37801;53.224;6.552;2023-05-29T02:48:35;13.57;;;2.72;;
51724;SDS011;37801;53.224;6.552;2023-05-29T02:51:01;9.88;;;2.58;;
51724;SDS011;37801;53.224;6.552;2023-05-29T02:53:28;9.93;;;2.50;;
51724;SDS011;37801;53.224;6.552;2023-05-29T02:55:54;13.93;;;2.78;;
51724;SDS011;37801;53.224;6.552;2023-05-29T02:58:20;9.20;;;2.30;;
51724;SDS011;37801;53.224;6.552;2023-05-29T03:00:46;7.75;;;2.13;;
51724;SDS011;37801;53.224;6.552;2023-05-29T03:03:13;12.88;;;2.33;;
51724;SDS011;37801;53.224;6.552;2023-05-29T03:05:39;8.88;;;2.22;;
51724;SDS011;37801;53.224;6.552;2023-05-29T03:08:05;10.15;;;2.10;;
51724;SDS011;37801;53.224;6.552;2023-05-29T03:10:31;8.93;;;2.25;;
51724;SDS011;37801;53.224;6.552;2023-05-29T03:12:58;11.88;;;2.65;;
51724;SDS011;37801;53.224;6.552;2023-05-29T03:15:24;10.13;;;2.70;;
51724;SDS011;37801;53.224;6.552;2023-05-29T03:17:50;9.18;;;2.50;;
51724;SDS011;37801;53.224;6.552;2023-05-29T03:20:16;10.75;;;2.97;;
51724;SDS011;37801;53.224;6.552;2023-05-29T03:22:42;8.77;;;2.47;;
51724;SDS011;37801;53.224;6.552;2023-05-29T03:25:08;9.95;;;2.47;;
51724;SDS011;37801;53.224;6.552;2023-05-29T03:27:34;9.88;;;2.22;;
51724;SDS011;37801;53.224;6.552;2023-05-29T03:30:01;15.35;;;2.63;;
51724;SDS011;37801;53.224;6.552;2023-05-29T03:32:28;9.25;;;2.20;;
51724;SDS011;37801;53.224;6.552;2023-05-29T03:34:54;7.95;;;2.25;;
51724;SDS011;37801;53.224;6.552;2023-05-29T03:37:22;10.98;;;2.55;;
51724;SDS011;37801;53.224;6.552;2023-05-29T03:39:48;12.90;;;2.10;;
51724;SDS011;37801;53.224;6.552;2023-05-29T03:42:14;18.67;;;2.63;;
51724;SDS011;37801;53.224;6.552;2023-05-29T03:44:41;10.13;;;2.33;;
51724;SDS011;37801;53.224;6.552;2023-05-29T03:47:07;11.02;;;2.35;;
51724;SDS011;37801;53.224;6.552;2023-05-29T03:49:34;10.75;;;2.28;;
51724;SDS011;37801;53.224;6.552;2023-05-29T03:52:00;7.90;;;2.00;;
51724;SDS011;37801;53.224;6.552;2023-05-29T03:54:26;17.50;;;3.10;;
51724;SDS011;37801;53.224;6.552;2023-05-29T03:56:52;11.20;;;2.47;;
51724;SDS011;37801;53.224;6.552;2023-05-29T03:59:18;12.88;;;2.53;;
51724;SDS011;37801;53.224;6.552;2023-05-29T04:01:45;12.75;;;2.55;;
51724;SDS011;37801;53.224;6.552;2023-05-29T04:04:11;11.82;;;2.50;;
51724;SDS011;37801;53.224;6.552;2023-05-29T04:06:37;15.32;;;2.60;;
51724;SDS011;37801;53.224;6.552;2023-05-29T04:09:04;12.63;;;2.70;;
51724;SDS011;37801;53.224;6.552;2023-05-29T04:11:32;8.50;;;2.38;;
51724;SDS011;37801;53.224;6.552;2023-05-29T04:13:59;10.43;;;2.22;;
51724;SDS011;37801;53.224;6.552;2023-05-29T04:16:26;10.32;;;2.42;;
51724;SDS011;37801;53.224;6.552;2023-05-29T04:18:53;12.57;;;2.67;;
51724;SDS011;37801;53.224;6.552;2023-05-29T04:21:20;10.23;;;2.60;;
51724;SDS011;37801;53.224;6.552;2023-05-29T04:23:46;13.30;;;2.45;;
51724;SDS011;37801;53.224;6.552;2023-05-29T04:26:12;11.30;;;2.10;;
51724;SDS011;37801;53.224;6.552;2023-05-29T04:28:38;17.38;;;3.00;;
51724;SDS011;37801;53.224;6.552;2023-05-29T04:31:05;12.25;;;2.28;;
51724;SDS011;37801;53.224;6.552;2023-05-29T04:33:31;10.80;;;2.40;;
51724;SDS011;37801;53.224;6.552;2023-05-29T04:35:58;10.50;;;2.42;;
51724;SDS011;37801;53.224;6.552;2023-05-29T04:38:29;10.32;;;2.80;;
51724;SDS011;37801;53.224;6.552;2023-05-29T04:40:56;8.52;;;2.35;;
51724;SDS011;37801;53.224;6.552;2023-05-29T04:43:23;9.60;;;1.95;;
51724;SDS011;37801;53.224;6.552;2023-05-29T04:45:51;14.23;;;3.05;;
51724;SDS011;37801;53.224;6.552;2023-05-29T04:48:18;10.88;;;2.42;;
51724;SDS011;37801;53.224;6.552;2023-05-29T04:50:44;11.60;;;2.67;;
51724;SDS011;37801;53.224;6.552;2023-05-29T04:53:10;10.18;;;2.40;;
51724;SDS011;37801;53.224;6.552;2023-05-29T04:55:36;11.32;;;2.92;;
51724;SDS011;37801;53.224;6.552;2023-05-29T04:58:03;9.07;;;2.33;;
51724;SDS011;37801;53.224;6.552;2023-05-29T05:00:29;9.15;;;2.03;;
51724;SDS011;37801;53.224;6.552;2023-05-29T05:02:55;15.50;;;2.85;;
51724;SDS011;37801;53.224;6.552;2023-05-29T05:05:21;10.35;;;2.15;;
51724;SDS011;37801;53.224;6.552;2023-05-29T05:07:48;9.50;;;2.42;;
51724;SDS011;37801;53.224;6.552;2023-05-29T05:10:14;14.60;;;2.78;;
51724;SDS011;37801;53.224;6.552;2023-05-29T05:12:40;11.55;;;2.67;;
51724;SDS011;37801;53.224;6.552;2023-05-29T05:15:06;12.45;;;2.47;;
51724;SDS011;37801;53.224;6.552;2023-05-29T05:17:33;9.70;;;2.53;;
51724;SDS011;37801;53.224;6.552;2023-05-29T05:19:59;13.68;;;2.60;;
51724;SDS011;37801;53.224;6.552;2023-05-29T05:22:25;11.90;;;2.95;;
51724;SDS011;37801;53.224;6.552;2023-05-29T05:24:51;11.68;;;3.17;;
51724;SDS011;37801;53.224;6.552;2023-05-29T05:27:19;11.60;;;2.60;;
51724;SDS011;37801;53.224;6.552;2023-05-29T05:29:45;12.32;;;2.83;;
51724;SDS011;37801;53.224;6.552;2023-05-29T05:32:11;10.23;;;2.50;;
51724;SDS011;37801;53.224;6.552;2023-05-29T05:34:37;11.50;;;2.53;;
51724;SDS011;37801;53.224;6.552;2023-05-29T05:37:04;11.30;;;2.88;;
51724;SDS011;37801;53.224;6.552;2023-05-29T05:39:30;8.32;;;2.60;;
51724;SDS011;37801;53.224;6.552;2023-05-29T05:41:56;13.05;;;2.70;;
51724;SDS011;37801;53.224;6.552;2023-05-29T05:44:22;12.18;;;3.13;;
51724;SDS011;37801;53.224;6.552;2023-05-29T05:46:48;7.70;;;2.47;;
51724;SDS011;37801;53.224;6.552;2023-05-29T05:49:14;19.20;;;3.15;;
51724;SDS011;37801;53.224;6.552;2023-05-29T05:51:40;15.07;;;3.05;;
51724;SDS011;37801;53.224;6.552;2023-05-29T05:54:07;17.30;;;3.40;;
51724;SDS011;37801;53.224;6.552;2023-05-29T05:56:33;10.40;;;3.25;;
51724;SDS011;37801;53.224;6.552;2023-05-29T05:58:59;18.77;;;3.40;;
51724;SDS011;37801;53.224;6.552;2023-05-29T06:01:26;11.68;;;3.08;;
51724;SDS011;37801;53.224;6.552;2023-05-29T06:03:52;14.52;;;3.10;;
51724;SDS011;37801;53.224;6.552;2023-05-29T06:06:18;15.55;;;3.35;;
51724;SDS011;37801;53.224;6.552;2023-05-29T06:08:44;14.82;;;3.53;;
51724;SDS011;37801;53.224;6.552;2023-05-29T06:11:10;12.65;;;2.85;;
51724;SDS011;37801;53.224;6.552;2023-05-29T06:13:37;14.93;;;3.70;;
51724;SDS011;37801;53.224;6.552;2023-05-29T06:16:03;15.73;;;3.53;;
51724;SDS011;37801;53.224;6.552;2023-05-29T06:18:30;16.17;;;3.20;;
51724;SDS011;37801;53.224;6.552;2023-05-29T06:20:56;16.90;;;3.85;;
51724;SDS011;37801;53.224;6.552;2023-05-29T06:23:22;15.63;;;3.65;;
51724;SDS011;37801;53.224;6.552;2023-05-29T06:25:48;13.40;;;3.45;;
51724;SDS011;37801;53.224;6.552;2023-05-29T06:28:14;20.63;;;3.70;;
51724;SDS011;37801;53.224;6.552;2023-05-29T06:30:40;15.30;;;3.42;;
51724;SDS011;37801;53.224;6.552;2023-05-29T06:33:07;14.82;;;3.53;;
51724;SDS011;37801;53.224;6.552;2023-05-29T06:35:33;16.15;;;3.55;;
51724;SDS011;37801;53.224;6.552;2023-05-29T06:37:59;15.07;;;2.80;;
51724;SDS011;37801;53.224;6.552;2023-05-29T06:40:25;11.43;;;2.80;;
51724;SDS011;37801;53.224;6.552;2023-05-29T06:42:52;14.68;;;3.53;;
51724;SDS011;37801;53.224;6.552;2023-05-29T06:45:18;12.35;;;3.17;;
51724;SDS011;37801;53.224;6.552;2023-05-29T06:47:44;13.73;;;3.40;;
51724;SDS011;37801;53.224;6.552;2023-05-29T06:50:10;12.35;;;3.35;;
51724;SDS011;37801;53.224;6.552;2023-05-29T06:52:36;14.70;;;3.65;;
51724;SDS011;37801;53.224;6.552;2023-05-29T06:55:02;14.45;;;3.58;;
51724;SDS011;37801;53.224;6.552;2023-05-29T06:57:28;15.98;;;3.70;;
51724;SDS011;37801;53.224;6.552;2023-05-29T06:59:55;17.80;;;3.63;;
51724;SDS011;37801;53.224;6.552;2023-05-29T07:02:21;12.43;;;3.30;;
51724;SDS011;37801;53.224;6.552;2023-05-29T07:04:47;15.77;;;3.55;;
51724;SDS011;37801;53.224;6.552;2023-05-29T07:07:13;16.73;;;4.50;;
51724;SDS011;37801;53.224;6.552;2023-05-29T07:09:39;18.00;;;3.88;;
51724;SDS011;37801;53.224;6.552;2023-05-29T07:12:06;14.10;;;3.13;;
51724;SDS011;37801;53.224;6.552;2023-05-29T07:14:32;9.88;;;2.75;;
51724;SDS011;37801;53.224;6.552;2023-05-29T07:16:59;11.90;;;3.05;;
51724;SDS011;37801;53.224;6.552;2023-05-29T07:19:25;16.73;;;3.40;;
51724;SDS011;37801;53.224;6.552;2023-05-29T07:21:51;14.90;;;3.03;;
51724;SDS011;37801;53.224;6.552;2023-05-29T07:24:17;12.35;;;3.13;;
51724;SDS011;37801;53.224;6.552;2023-05-29T07:26:43;16.52;;;3.30;;
51724;SDS011;37801;53.224;6.552;2023-05-29T07:29:10;13.48;;;3.10;;
51724;SDS011;37801;53.224;6.552;2023-05-29T07:31:37;14.32;;;3.35;;
51724;SDS011;37801;53.224;6.552;2023-05-29T07:34:05;17.58;;;3.47;;
51724;SDS011;37801;53.224;6.552;2023-05-29T07:36:31;12.73;;;3.30;;
51724;SDS011;37801;53.224;6.552;2023-05-29T07:38:57;15.60;;;3.50;;
51724;SDS011;37801;53.224;6.552;2023-05-29T07:41:24;15.15;;;3.25;;
51724;SDS011;37801;53.224;6.552;2023-05-29T07:43:51;15.82;;;3.97;;
51724;SDS011;37801;53.224;6.552;2023-05-29T07:46:18;13.10;;;3.28;;
51724;SDS011;37801;53.224;6.552;2023-05-29T07:48:44;19.83;;;3.72;;
51724;SDS011;37801;53.224;6.552;2023-05-29T07:51:11;14.43;;;3.33;;
51724;SDS011;37801;53.224;6.552;2023-05-29T07:53:38;13.40;;;3.13;;
51724;SDS011;37801;53.224;6.552;2023-05-29T07:56:04;15.43;;;3.28;;
51724;SDS011;37801;53.224;6.552;2023-05-29T07:58:30;16.70;;;3.15;;
51724;SDS011;37801;53.224;6.552;2023-05-29T08:00:57;22.73;;;4.38;;
51724;SDS011;37801;53.224;6.552;2023-05-29T08:03:24;15.35;;;3.67;;
51724;SDS011;37801;53.224;6.552;2023-05-29T08:05:51;11.55;;;3.00;;
51724;SDS011;37801;53.224;6.552;2023-05-29T08:08:17;11.77;;;2.90;;
51724;SDS011;37801;53.224;6.552;2023-05-29T08:10:43;12.40;;;3.10;;
51724;SDS011;37801;53.224;6.552;2023-05-29T08:13:10;12.40;;;3.25;;
51724;SDS011;37801;53.224;6.552;2023-05-29T08:15:36;16.48;;;3.42;;
51724;SDS011;37801;53.224;6.552;2023-05-29T08:18:02;18.15;;;3.85;;
51724;SDS011;37801;53.224;6.552;2023-05-29T08:20:28;17.50;;;3.80;;
51724;SDS011;37801;53.224;6.552;2023-05-29T08:22:54;15.30;;;3.55;;
51724;SDS011;37801;53.224;6.552;2023-05-29T08:25:20;14.20;;;3.63;;
51724;SDS011;37801;53.224;6.552;2023-05-29T08:27:47;18.70;;;3.40;;
51724;SDS011;37801;53.224;6.552;2023-05-29T08:30:13;19.67;;;3.20;;
51724;SDS011;37801;53.224;6.552;2023-05-29T08:32:39;19.08;;;3.53;;
51724;SDS011;37801;53.224;6.552;2023-05-29T08:35:05;12.75;;;3.25;;
51724;SDS011;37801;53.224;6.552;2023-05-29T08:37:31;14.35;;;3.53;;
51724;SDS011;37801;53.224;6.552;2023-05-29T08:39:57;14.52;;;3.95;;
51724;SDS011;37801;53.224;6.552;2023-05-29T08:42:29;14.13;;;3.30;;
51724;SDS011;37801;53.224;6.552;2023-05-29T08:44:58;19.23;;;3.42;;
51724;SDS011;37801;53.224;6.552;2023-05-29T08:47:28;20.55;;;3.47;;
51724;SDS011;37801;53.224;6.552;2023-05-29T08:49:56;21.48;;;4.22;;
51724;SDS011;37801;53.224;6.552;2023-05-29T08:52:23;17.13;;;3.72;;
51724;SDS011;37801;53.224;6.552;2023-05-29T08:54:50;17.02;;;3.63;;
51724;SDS011;37801;53.224;6.552;2023-05-29T08:57:17;19.02;;;3.35;;
51724;SDS011;37801;53.224;6.552;2023-05-29T08:59:44;12.85;;;3.13;;
51724;SDS011;37801;53.224;6.552;2023-05-29T09:02:10;19.33;;;3.47;;
51724;SDS011;37801;53.224;6.552;2023-05-29T09:04:37;16.02;;;3.35;;
51724;SDS011;37801;53.224;6.552;2023-05-29T09:07:04;15.48;;;3.60;;
51724;SDS011;37801;53.224;6.552;2023-05-29T09:09:34;14.98;;;3.28;;
51724;SDS011;37801;53.224;6.552;2023-05-29T09:12:00;15.90;;;3.47;;
51724;SDS011;37801;53.224;6.552;2023-05-29T09:14:41;20.00;;;3.65;;
51724;SDS011;37801;53.224;6.552;2023-05-29T09:17:08;11.10;;;2.90;;
51724;SDS011;37801;53.224;6.552;2023-05-29T09:19:34;13.93;;;3.28;;
51724;SDS011;37801;53.224;6.552;2023-05-29T09:22:19;16.40;;;3.45;;
51724;SDS011;37801;53.224;6.552;2023-05-29T09:24:46;14.27;;;3.45;;
51724;SDS011;37801;53.224;6.552;2023-05-29T09:27:12;17.40;;;3.58;;
51724;SDS011;37801;53.224;6.552;2023-05-29T09:29:39;13.15;;;3.38;;
51724;SDS011;37801;53.224;6.552;2023-05-29T09:32:09;17.35;;;3.53;;
51724;SDS011;37801;53.224;6.552;2023-05-29T09:34:36;15.80;;;3.65;;
51724;SDS011;37801;53.224;6.552;2023-05-29T09:37:03;13.07;;;3.38;;
51724;SDS011;37801;53.224;6.552;2023-05-29T09:42:13;18.15;;;3.97;;
51724;SDS011;37801;53.224;6.552;2023-05-29T09:44:42;18.83;;;3.35;;
51724;SDS011;37801;53.224;6.552;2023-05-29T09:47:09;16.42;;;3.30;;
51724;SDS011;37801;53.224;6.552;2023-05-29T09:49:35;14.93;;;3.50;;
51724;SDS011;37801;53.224;6.552;2023-05-29T09:52:06;19.13;;;4.13;;
51724;SDS011;37801;53.224;6.552;2023-05-29T09:54:34;13.70;;;3.78;;
51724;SDS011;37801;53.224;6.552;2023-05-29T09:57:01;18.90;;;3.65;;
51724;SDS011;37801;53.224;6.552;2023-05-29T09:59:30;12.52;;;3.88;;
51724;SDS011;37801;53.224;6.552;2023-05-29T10:02:00;13.65;;;3.30;;
51724;SDS011;37801;53.224;6.552;2023-05-29T10:04:29;14.43;;;3.50;;
51724;SDS011;37801;53.224;6.552;2023-05-29T10:06:57;18.17;;;3.38;;
51724;SDS011;37801;53.224;6.552;2023-05-29T10:09:26;14.32;;;3.30;;
51724;SDS011;37801;53.224;6.552;2023-05-29T10:11:53;13.52;;;3.33;;
51724;SDS011;37801;53.224;6.552;2023-05-29T10:14:23;11.77;;;3.15;;
51724;SDS011;37801;53.224;6.552;2023-05-29T10:16:50;13.15;;;2.95;;
51724;SDS011;37801;53.224;6.552;2023-05-29T10:19:19;11.85;;;3.15;;
51724;SDS011;37801;53.224;6.552;2023-05-29T10:21:48;20.52;;;3.85;;
51724;SDS011;37801;53.224;6.552;2023-05-29T10:24:14;15.43;;;3.45;;
51724;SDS011;37801;53.224;6.552;2023-05-29T10:26:41;18.00;;;3.83;;
51724;SDS011;37801;53.224;6.552;2023-05-29T10:32:01;18.77;;;3.38;;
51724;SDS011;37801;53.224;6.552;2023-05-29T10:37:06;13.70;;;3.22;;
51724;SDS011;37801;53.224;6.552;2023-05-29T10:39:34;12.65;;;3.15;;
51724;SDS011;37801;53.224;6.552;2023-05-29T10:42:00;18.88;;;3.90;;
51724;SDS011;37801;53.224;6.552;2023-05-29T10:49:23;14.48;;;2.83;;
51724;SDS011;37801;53.224;6.552;2023-05-29T10:51:50;16.70;;;3.67;;
51724;SDS011;37801;53.224;6.552;2023-05-29T10:54:18;11.25;;;2.97;;
51724;SDS011;37801;53.224;6.552;2023-05-29T10:56:52;13.38;;;3.45;;
51724;SDS011;37801;53.224;6.552;2023-05-29T10:59:20;16.55;;;3.30;;
51724;SDS011;37801;53.224;6.552;2023-05-29T11:01:47;14.57;;;3.50;;
51724;SDS011;37801;53.224;6.552;2023-05-29T11:06:51;12.43;;;3.28;;
51724;SDS011;37801;53.224;6.552;2023-05-29T11:14:45;16.08;;;3.50;;
51724;SDS011;37801;53.224;6.552;2023-05-29T11:19:56;11.70;;;2.60;;
51724;SDS011;37801;53.224;6.552;2023-05-29T11:22:26;14.65;;;3.38;;
51724;SDS011;37801;53.224;6.552;2023-05-29T11:24:53;14.13;;;3.38;;
51724;SDS011;37801;53.224;6.552;2023-05-29T11:27:23;14.18;;;3.40;;
51724;SDS011;37801;53.224;6.552;2023-05-29T11:29:49;15.85;;;4.00;;
51724;SDS011;37801;53.224;6.552;2023-05-29T11:32:18;11.68;;;2.78;;
51724;SDS011;37801;53.224;6.552;2023-05-29T11:34:46;13.73;;;3.20;;
51724;SDS011;37801;53.224;6.552;2023-05-29T11:37:13;8.18;;;2.55;;
51724;SDS011;37801;53.224;6.552;2023-05-29T11:39:40;15.25;;;3.28;;
51724;SDS011;37801;53.224;6.552;2023-05-29T11:42:07;18.48;;;3.20;;
51724;SDS011;37801;53.224;6.552;2023-05-29T11:44:36;14.55;;;3.00;;
51724;SDS011;37801;53.224;6.552;2023-05-29T11:47:03;15.15;;;3.38;;
51724;SDS011;37801;53.224;6.552;2023-05-29T11:49:33;20.85;;;3.53;;
51724;SDS011;37801;53.224;6.552;2023-05-29T11:52:09;16.65;;;3.80;;
51724;SDS011;37801;53.224;6.552;2023-05-29T11:54:35;14.15;;;3.40;;
51724;SDS011;37801;53.224;6.552;2023-05-29T11:57:02;12.40;;;3.25;;
51724;SDS011;37801;53.224;6.552;2023-05-29T11:59:33;13.50;;;3.45;;
51724;SDS011;37801;53.224;6.552;2023-05-29T12:02:03;13.77;;;3.38;;
51724;SDS011;37801;53.224;6.552;2023-05-29T12:04:29;16.75;;;3.55;;
51724;SDS011;37801;53.224;6.552;2023-05-29T12:06:55;13.10;;;3.42;;
51724;SDS011;37801;53.224;6.552;2023-05-29T12:09:25;10.93;;;3.05;;
51724;SDS011;37801;53.224;6.552;2023-05-29T12:11:51;15.32;;;3.33;;
51724;SDS011;37801;53.224;6.552;2023-05-29T12:14:17;15.38;;;3.20;;
51724;SDS011;37801;53.224;6.552;2023-05-29T12:16:43;14.02;;;3.47;;
51724;SDS011;37801;53.224;6.552;2023-05-29T12:19:10;16.20;;;3.47;;
51724;SDS011;37801;53.224;6.552;2023-05-29T12:21:36;20.33;;;3.83;;
51724;SDS011;37801;53.224;6.552;2023-05-29T12:24:07;21.05;;;3.33;;
51724;SDS011;37801;53.224;6.552;2023-05-29T12:26:33;10.75;;;2.78;;
51724;SDS011;37801;53.224;6.552;2023-05-29T12:29:02;14.45;;;3.42;;
51724;SDS011;37801;53.224;6.552;2023-05-29T12:31:29;17.55;;;3.85;;
51724;SDS011;37801;53.224;6.552;2023-05-29T12:34:06;15.02;;;2.88;;
51724;SDS011;37801;53.224;6.552;2023-05-29T12:36:33;10.20;;;3.05;;
51724;SDS011;37801;53.224;6.552;2023-05-29T12:38:59;10.18;;;2.60;;
51724;SDS011;37801;53.224;6.552;2023-05-29T12:43:53;13.57;;;2.80;;
51724;SDS011;37801;53.224;6.552;2023-05-29T12:46:20;10.20;;;2.80;;
51724;SDS011;37801;53.224;6.552;2023-05-29T12:48:47;13.07;;;2.83;;
51724;SDS011;37801;53.224;6.552;2023-05-29T12:51:14;14.82;;;2.80;;
51724;SDS011;37801;53.224;6.552;2023-05-29T12:53:40;14.23;;;2.88;;
51724;SDS011;37801;53.224;6.552;2023-05-29T12:56:06;15.68;;;3.10;;
51724;SDS011;37801;53.224;6.552;2023-05-29T12:58:33;11.40;;;2.38;;
51724;SDS011;37801;53.224;6.552;2023-05-29T13:00:59;13.68;;;2.83;;
51724;SDS011;37801;53.224;6.552;2023-05-29T13:03:25;9.85;;;2.80;;
51724;SDS011;37801;53.224;6.552;2023-05-29T13:05:51;8.77;;;2.42;;
51724;SDS011;37801;53.224;6.552;2023-05-29T13:08:18;12.98;;;2.60;;
51724;SDS011;37801;53.224;6.552;2023-05-29T13:10:45;11.55;;;2.90;;
51724;SDS011;37801;53.224;6.552;2023-05-29T13:13:11;10.55;;;3.80;;
51724;SDS011;37801;53.224;6.552;2023-05-29T13:15:38;12.60;;;2.80;;
51724;SDS011;37801;53.224;6.552;2023-05-29T13:18:05;13.77;;;2.72;;
51724;SDS011;37801;53.224;6.552;2023-05-29T13:20:32;13.05;;;3.13;;
51724;SDS011;37801;53.224;6.552;2023-05-29T13:22:58;15.90;;;2.88;;
51724;SDS011;37801;53.224;6.552;2023-05-29T13:25:24;15.90;;;3.30;;
51724;SDS011;37801;53.224;6.552;2023-05-29T13:27:50;11.07;;;2.72;;
51724;SDS011;37801;53.224;6.552;2023-05-29T13:30:17;13.98;;;3.25;;
51724;SDS011;37801;53.224;6.552;2023-05-29T13:32:44;12.05;;;3.13;;
51724;SDS011;37801;53.224;6.552;2023-05-29T13:35:10;10.63;;;2.58;;
51724;SDS011;37801;53.224;6.552;2023-05-29T13:37:36;16.02;;;2.95;;
51724;SDS011;37801;53.224;6.552;2023-05-29T13:40:03;14.50;;;3.58;;
51724;SDS011;37801;53.224;6.552;2023-05-29T13:42:30;14.48;;;2.75;;
51724;SDS011;37801;53.224;6.552;2023-05-29T13:44:56;15.60;;;3.05;;
51724;SDS011;37801;53.224;6.552;2023-05-29T13:47:22;14.40;;;2.88;;
51724;SDS011;37801;53.224;6.552;2023-05-29T13:49:48;12.90;;;2.80;;
51724;SDS011;37801;53.224;6.552;2023-05-29T13:52:14;10.05;;;2.80;;
51724;SDS011;37801;53.224;6.552;2023-05-29T13:54:41;15.00;;;2.80;;
51724;SDS011;37801;53.224;6.552;2023-05-29T13:57:08;12.43;;;2.30;;
51724;SDS011;37801;53.224;6.552;2023-05-29T13:59:34;12.95;;;2.60;;
51724;SDS011;37801;53.224;6.552;2023-05-29T14:02:00;12.45;;;3.13;;
51724;SDS011;37801;53.224;6.552;2023-05-29T14:04:28;10.18;;;2.65;;
51724;SDS011;37801;53.224;6.552;2023-05-29T14:06:55;8.32;;;2.13;;
51724;SDS011;37801;53.224;6.552;2023-05-29T14:09:21;10.95;;;3.50;;
51724;SDS011;37801;53.224;6.552;2023-05-29T14:11:53;10.15;;;2.35;;
51724;SDS011;37801;53.224;6.552;2023-05-29T14:14:19;11.48;;;2.55;;
51724;SDS011;37801;53.224;6.552;2023-05-29T14:16:45;9.52;;;2.50;;
51724;SDS011;37801;53.224;6.552;2023-05-29T14:19:11;10.70;;;2.78;;
51724;SDS011;37801;53.224;6.552;2023-05-29T14:21:37;10.02;;;2.67;;
51724;SDS011;37801;53.224;6.552;2023-05-29T14:24:04;9.48;;;2.50;;
51724;SDS011;37801;53.224;6.552;2023-05-29T14:26:30;8.13;;;2.78;;
51724;SDS011;37801;53.224;6.552;2023-05-29T14:28:56;12.00;;;3.00;;
51724;SDS011;37801;53.224;6.552;2023-05-29T14:31:22;13.25;;;2.58;;
51724;SDS011;37801;53.224;6.552;2023-05-29T14:33:48;7.40;;;2.70;;
51724;SDS011;37801;53.224;6.552;2023-05-29T14:36:14;10.68;;;2.35;;
51724;SDS011;37801;53.224;6.552;2023-05-29T14:38:41;12.60;;;2.70;;
51724;SDS011;37801;53.224;6.552;2023-05-29T14:41:08;12.38;;;2.40;;
51724;SDS011;37801;53.224;6.552;2023-05-29T14:43:34;10.48;;;3.00;;
51724;SDS011;37801;53.224;6.552;2023-05-29T14:46:01;11.80;;;2.92;;
51724;SDS011;37801;53.224;6.552;2023-05-29T14:48:27;9.23;;;2.92;;
51724;SDS011;37801;53.224;6.552;2023-05-29T14:50:53;12.63;;;2.70;;
51724;SDS011;37801;53.224;6.552;2023-05-29T14:53:19;9.32;;;2.33;;
51724;SDS011;37801;53.224;6.552;2023-05-29T14:55:47;11.93;;;2.60;;
51724;SDS011;37801;53.224;6.552;2023-05-29T14:58:14;11.63;;;2.70;;
51724;SDS011;37801;53.224;6.552;2023-05-29T15:00:40;10.55;;;2.40;;
51724;SDS011;37801;53.224;6.552;2023-05-29T15:03:06;17.50;;;2.72;;
51724;SDS011;37801;53.224;6.552;2023-05-29T15:05:32;11.18;;;2.88;;
51724;SDS011;37801;53.224;6.552;2023-05-29T15:07:58;11.95;;;3.53;;
51724;SDS011;37801;53.224;6.552;2023-05-29T15:10:25;11.63;;;2.40;;
51724;SDS011;37801;53.224;6.552;2023-05-29T15:12:52;15.35;;;3.00;;